sensor_id;sensor_type;location;lat;lon;timestamp;P1;durP1;ratioP1;P2;durP2;ratioP2
76155;SDS011;64906;51.290;7.348;2023-03-01T00:01:15;65.30;;;39.50;;
76155;SDS011;64906;51.290;7.348;2023-03-01T00:03:43;63.95;;;39.78;;
76155;SDS011;64906;51.290;7.348;2023-03-01T00:06:10;65.95;;;40.78;;
76155;SDS011;64906;51.290;7.348;2023-03-01T00:08:37;65.78;;;41.55;;
76155;SDS011;64906;51.290;7.348;2023-03-01T00:11:04;66.82;;;40.92;;
76155;SDS011;64906;51.290;7.348;2023-03-01T00:13:30;69.35;;;40.05;;
76155;SDS011;64906;51.290;7.348;2023-03-01T00:15:56;63.13;;;39.45;;
76155;SDS011;64906;51.290;7.348;2023-03-01T00:18:22;65.40;;;40.25;;
76155;SDS011;64906;51.290;7.348;2023-03-01T00:20:50;64.50;;;40.15;;
76155;SDS011;64906;51.290;7.348;2023-03-01T00:23:20;67.65;;;40.97;;
76155;SDS011;64906;51.290;7.348;2023-03-01T00:25:47;63.40;;;38.65;;
76155;SDS011;64906;51.290;7.348;2023-03-01T00:28:13;65.82;;;38.80;;
76155;SDS011;64906;51.290;7.348;2023-03-01T00:30:39;66.93;;;39.85;;
76155;SDS011;64906;51.290;7.348;2023-03-01T00:33:05;67.25;;;42.80;;
76155;SDS011;64906;51.290;7.348;2023-03-01T00:35:32;64.25;;;39.58;;
76155;SDS011;64906;51.290;7.348;2023-03-01T00:37:58;65.43;;;40.58;;
76155;SDS011;64906;51.290;7.348;2023-03-01T00:40:25;61.00;;;37.85;;
76155;SDS011;64906;51.290;7.348;2023-03-01T00:42:54;60.92;;;37.58;;
76155;SDS011;64906;51.290;7.348;2023-03-01T00:45:20;62.33;;;38.83;;
76155;SDS011;64906;51.290;7.348;2023-03-01T00:47:47;61.22;;;38.42;;
76155;SDS011;64906;51.290;7.348;2023-03-01T00:50:14;63.95;;;38.45;;
76155;SDS011;64906;51.290;7.348;2023-03-01T00:52:40;61.38;;;37.92;;
76155;SDS011;64906;51.290;7.348;2023-03-01T00:55:06;55.05;;;36.60;;
76155;SDS011;64906;51.290;7.348;2023-03-01T00:57:33;64.00;;;38.25;;
76155;SDS011;64906;51.290;7.348;2023-03-01T00:59:59;58.60;;;37.08;;
76155;SDS011;64906;51.290;7.348;2023-03-01T01:02:25;59.33;;;36.63;;
76155;SDS011;64906;51.290;7.348;2023-03-01T01:04:51;61.72;;;37.03;;
76155;SDS011;64906;51.290;7.348;2023-03-01T01:07:18;58.30;;;37.63;;
76155;SDS011;64906;51.290;7.348;2023-03-01T01:09:45;59.67;;;37.60;;
76155;SDS011;64906;51.290;7.348;2023-03-01T01:12:12;55.65;;;35.88;;
76155;SDS011;64906;51.290;7.348;2023-03-01T01:14:38;59.75;;;36.60;;
76155;SDS011;64906;51.290;7.348;2023-03-01T01:17:04;57.95;;;36.00;;
76155;SDS011;64906;51.290;7.348;2023-03-01T01:19:30;59.83;;;37.47;;
76155;SDS011;64906;51.290;7.348;2023-03-01T01:21:56;56.08;;;35.45;;
76155;SDS011;64906;51.290;7.348;2023-03-01T01:24:22;58.47;;;36.47;;
76155;SDS011;64906;51.290;7.348;2023-03-01T01:26:48;56.60;;;35.42;;
76155;SDS011;64906;51.290;7.348;2023-03-01T01:29:14;54.85;;;35.08;;
76155;SDS011;64906;51.290;7.348;2023-03-01T01:31:42;56.50;;;35.05;;
76155;SDS011;64906;51.290;7.348;2023-03-01T01:34:12;57.15;;;35.65;;
76155;SDS011;64906;51.290;7.348;2023-03-01T01:36:40;57.40;;;35.85;;
76155;SDS011;64906;51.290;7.348;2023-03-01T01:39:06;58.53;;;36.28;;
76155;SDS011;64906;51.290;7.348;2023-03-01T01:41:32;58.05;;;38.20;;
76155;SDS011;64906;51.290;7.348;2023-03-01T01:44:12;59.92;;;39.28;;
76155;SDS011;64906;51.290;7.348;2023-03-01T01:47:02;56.53;;;35.13;;
76155;SDS011;64906;51.290;7.348;2023-03-01T01:52:22;55.67;;;34.97;;
76155;SDS011;64906;51.290;7.348;2023-03-01T01:55:02;57.60;;;36.78;;
76155;SDS011;64906;51.290;7.348;2023-03-01T01:57:36;57.88;;;34.40;;
76155;SDS011;64906;51.290;7.348;2023-03-01T02:00:11;55.20;;;34.63;;
76155;SDS011;64906;51.290;7.348;2023-03-01T02:02:39;56.10;;;35.80;;
76155;SDS011;64906;51.290;7.348;2023-03-01T02:07:45;54.65;;;33.88;;
76155;SDS011;64906;51.290;7.348;2023-03-01T02:10:12;52.05;;;32.65;;
76155;SDS011;64906;51.290;7.348;2023-03-01T02:12:38;50.35;;;33.47;;
76155;SDS011;64906;51.290;7.348;2023-03-01T02:15:05;55.35;;;34.63;;
76155;SDS011;64906;51.290;7.348;2023-03-01T02:17:31;55.97;;;33.45;;
76155;SDS011;64906;51.290;7.348;2023-03-01T02:20:34;55.15;;;34.90;;
76155;SDS011;64906;51.290;7.348;2023-03-01T02:22:57;54.80;;;33.10;;
76155;SDS011;64906;51.290;7.348;2023-03-01T02:30:39;53.85;;;33.03;;
76155;SDS011;64906;51.290;7.348;2023-03-01T02:33:26;52.08;;;33.35;;
76155;SDS011;64906;51.290;7.348;2023-03-01T02:35:53;52.75;;;33.45;;
76155;SDS011;64906;51.290;7.348;2023-03-01T02:38:21;55.22;;;33.33;;
76155;SDS011;64906;51.290;7.348;2023-03-01T02:40:48;56.45;;;36.78;;
76155;SDS011;64906;51.290;7.348;2023-03-01T02:43:16;52.33;;;33.28;;
76155;SDS011;64906;51.290;7.348;2023-03-01T02:45:49;49.63;;;31.98;;
76155;SDS011;64906;51.290;7.348;2023-03-01T02:48:15;50.33;;;32.80;;
76155;SDS011;64906;51.290;7.348;2023-03-01T02:50:53;52.20;;;33.63;;
76155;SDS011;64906;51.290;7.348;2023-03-01T02:53:42;51.97;;;32.55;;
76155;SDS011;64906;51.290;7.348;2023-03-01T02:56:18;50.65;;;30.92;;
76155;SDS011;64906;51.290;7.348;2023-03-01T02:58:45;49.15;;;30.70;;
76155;SDS011;64906;51.290;7.348;2023-03-01T03:01:16;50.30;;;31.35;;
76155;SDS011;64906;51.290;7.348;2023-03-01T03:03:42;46.97;;;30.92;;
76155;SDS011;64906;51.290;7.348;2023-03-01T03:06:08;51.20;;;31.65;;
76155;SDS011;64906;51.290;7.348;2023-03-01T03:08:34;45.83;;;30.67;;
76155;SDS011;64906;51.290;7.348;2023-03-01T03:11:00;51.08;;;31.40;;
76155;SDS011;64906;51.290;7.348;2023-03-01T03:13:26;52.78;;;31.75;;
76155;SDS011;64906;51.290;7.348;2023-03-01T03:15:56;51.53;;;32.28;;
76155;SDS011;64906;51.290;7.348;2023-03-01T03:18:22;47.17;;;31.75;;
76155;SDS011;64906;51.290;7.348;2023-03-01T03:20:53;49.10;;;31.25;;
76155;SDS011;64906;51.290;7.348;2023-03-01T03:23:20;46.90;;;31.00;;
76155;SDS011;64906;51.290;7.348;2023-03-01T03:25:48;48.80;;;30.63;;
76155;SDS011;64906;51.290;7.348;2023-03-01T03:28:15;48.60;;;30.75;;
76155;SDS011;64906;51.290;7.348;2023-03-01T03:30:41;49.92;;;31.27;;
76155;SDS011;64906;51.290;7.348;2023-03-01T03:33:09;48.65;;;29.88;;
76155;SDS011;64906;51.290;7.348;2023-03-01T03:35:46;46.50;;;29.52;;
76155;SDS011;64906;51.290;7.348;2023-03-01T03:38:14;48.70;;;33.05;;
76155;SDS011;64906;51.290;7.348;2023-03-01T03:40:49;50.00;;;31.05;;
76155;SDS011;64906;51.290;7.348;2023-03-01T03:43:17;47.33;;;30.55;;
76155;SDS011;64906;51.290;7.348;2023-03-01T03:45:46;46.10;;;29.45;;
76155;SDS011;64906;51.290;7.348;2023-03-01T03:48:13;44.05;;;28.55;;
76155;SDS011;64906;51.290;7.348;2023-03-01T03:50:39;46.13;;;28.45;;
76155;SDS011;64906;51.290;7.348;2023-03-01T03:53:09;45.40;;;28.85;;
76155;SDS011;64906;51.290;7.348;2023-03-01T03:55:38;46.55;;;28.73;;
76155;SDS011;64906;51.290;7.348;2023-03-01T03:58:05;44.15;;;27.92;;
76155;SDS011;64906;51.290;7.348;2023-03-01T04:00:36;46.67;;;28.42;;
76155;SDS011;64906;51.290;7.348;2023-03-01T04:03:07;47.38;;;28.05;;
76155;SDS011;64906;51.290;7.348;2023-03-01T04:05:35;50.10;;;30.00;;
76155;SDS011;64906;51.290;7.348;2023-03-01T04:08:01;44.72;;;28.77;;
76155;SDS011;64906;51.290;7.348;2023-03-01T04:10:29;48.60;;;28.88;;
76155;SDS011;64906;51.290;7.348;2023-03-01T04:12:56;49.00;;;29.08;;
76155;SDS011;64906;51.290;7.348;2023-03-01T04:15:23;45.17;;;28.95;;
76155;SDS011;64906;51.290;7.348;2023-03-01T04:17:51;47.83;;;29.02;;
76155;SDS011;64906;51.290;7.348;2023-03-01T04:20:19;44.35;;;27.52;;
76155;SDS011;64906;51.290;7.348;2023-03-01T04:22:51;43.67;;;27.92;;
76155;SDS011;64906;51.290;7.348;2023-03-01T04:25:24;43.88;;;29.77;;
76155;SDS011;64906;51.290;7.348;2023-03-01T04:27:50;41.15;;;27.05;;
76155;SDS011;64906;51.290;7.348;2023-03-01T04:30:16;43.45;;;27.15;;
76155;SDS011;64906;51.290;7.348;2023-03-01T04:32:42;43.78;;;27.15;;
76155;SDS011;64906;51.290;7.348;2023-03-01T04:35:08;41.28;;;26.95;;
76155;SDS011;64906;51.290;7.348;2023-03-01T04:37:35;45.13;;;27.83;;
76155;SDS011;64906;51.290;7.348;2023-03-01T04:40:02;41.03;;;26.55;;
76155;SDS011;64906;51.290;7.348;2023-03-01T04:42:40;42.72;;;27.73;;
76155;SDS011;64906;51.290;7.348;2023-03-01T04:45:08;44.03;;;27.90;;
76155;SDS011;64906;51.290;7.348;2023-03-01T04:47:38;43.63;;;27.00;;
76155;SDS011;64906;51.290;7.348;2023-03-01T04:50:06;40.90;;;27.25;;
76155;SDS011;64906;51.290;7.348;2023-03-01T04:52:33;42.72;;;26.52;;
76155;SDS011;64906;51.290;7.348;2023-03-01T04:54:59;43.80;;;26.98;;
76155;SDS011;64906;51.290;7.348;2023-03-01T04:57:25;46.42;;;30.95;;
76155;SDS011;64906;51.290;7.348;2023-03-01T04:59:51;41.22;;;27.38;;
76155;SDS011;64906;51.290;7.348;2023-03-01T05:02:16;45.15;;;26.58;;
76155;SDS011;64906;51.290;7.348;2023-03-01T05:04:42;47.53;;;27.92;;
76155;SDS011;64906;51.290;7.348;2023-03-01T05:07:08;42.22;;;26.20;;
76155;SDS011;64906;51.290;7.348;2023-03-01T05:09:34;43.20;;;27.52;;
76155;SDS011;64906;51.290;7.348;2023-03-01T05:12:00;40.33;;;26.27;;
76155;SDS011;64906;51.290;7.348;2023-03-01T05:14:25;37.25;;;25.48;;
76155;SDS011;64906;51.290;7.348;2023-03-01T05:16:51;41.28;;;25.63;;
76155;SDS011;64906;51.290;7.348;2023-03-01T05:19:17;45.25;;;25.90;;
76155;SDS011;64906;51.290;7.348;2023-03-01T05:21:48;41.97;;;26.70;;
76155;SDS011;64906;51.290;7.348;2023-03-01T05:24:30;41.17;;;25.80;;
76155;SDS011;64906;51.290;7.348;2023-03-01T05:26:57;42.72;;;25.83;;
76155;SDS011;64906;51.290;7.348;2023-03-01T05:29:24;40.92;;;26.38;;
76155;SDS011;64906;51.290;7.348;2023-03-01T05:31:52;41.92;;;26.35;;
76155;SDS011;64906;51.290;7.348;2023-03-01T05:34:22;39.67;;;25.80;;
76155;SDS011;64906;51.290;7.348;2023-03-01T05:36:49;45.38;;;25.75;;
76155;SDS011;64906;51.290;7.348;2023-03-01T05:39:19;40.08;;;26.25;;
76155;SDS011;64906;51.290;7.348;2023-03-01T05:41:56;40.83;;;25.17;;
76155;SDS011;64906;51.290;7.348;2023-03-01T05:44:22;39.63;;;26.88;;
76155;SDS011;64906;51.290;7.348;2023-03-01T05:46:49;41.05;;;25.15;;
76155;SDS011;64906;51.290;7.348;2023-03-01T05:49:15;40.45;;;25.15;;
76155;SDS011;64906;51.290;7.348;2023-03-01T05:51:47;38.03;;;24.05;;
76155;SDS011;64906;51.290;7.348;2023-03-01T05:54:14;40.42;;;26.80;;
76155;SDS011;64906;51.290;7.348;2023-03-01T05:56:41;39.15;;;25.10;;
76155;SDS011;64906;51.290;7.348;2023-03-01T05:59:06;38.22;;;24.90;;
76155;SDS011;64906;51.290;7.348;2023-03-01T06:01:33;38.97;;;27.52;;
76155;SDS011;64906;51.290;7.348;2023-03-01T06:04:00;42.78;;;25.02;;
76155;SDS011;64906;51.290;7.348;2023-03-01T06:06:26;35.95;;;22.95;;
76155;SDS011;64906;51.290;7.348;2023-03-01T06:08:52;39.97;;;24.65;;
76155;SDS011;64906;51.290;7.348;2023-03-01T06:11:19;39.00;;;24.17;;
76155;SDS011;64906;51.290;7.348;2023-03-01T06:13:45;37.88;;;24.05;;
76155;SDS011;64906;51.290;7.348;2023-03-01T06:16:12;41.97;;;24.02;;
76155;SDS011;64906;51.290;7.348;2023-03-01T06:18:39;37.13;;;24.38;;
76155;SDS011;64906;51.290;7.348;2023-03-01T06:21:06;37.50;;;23.13;;
76155;SDS011;64906;51.290;7.348;2023-03-01T06:23:33;36.42;;;24.63;;
76155;SDS011;64906;51.290;7.348;2023-03-01T06:25:59;37.05;;;24.65;;
76155;SDS011;64906;51.290;7.348;2023-03-01T06:28:25;35.65;;;24.23;;
76155;SDS011;64906;51.290;7.348;2023-03-01T06:30:51;36.35;;;22.98;;
76155;SDS011;64906;51.290;7.348;2023-03-01T06:33:18;37.03;;;22.50;;
76155;SDS011;64906;51.290;7.348;2023-03-01T06:38:15;35.55;;;23.48;;
76155;SDS011;64906;51.290;7.348;2023-03-01T06:40:42;36.60;;;22.98;;
76155;SDS011;64906;51.290;7.348;2023-03-01T06:43:08;36.40;;;24.02;;
76155;SDS011;64906;51.290;7.348;2023-03-01T06:45:34;36.28;;;23.67;;
76155;SDS011;64906;51.290;7.348;2023-03-01T06:48:06;39.15;;;22.48;;
76155;SDS011;64906;51.290;7.348;2023-03-01T06:50:33;37.67;;;23.13;;
76155;SDS011;64906;51.290;7.348;2023-03-01T06:53:00;34.42;;;22.95;;
76155;SDS011;64906;51.290;7.348;2023-03-01T06:55:26;34.80;;;22.98;;
76155;SDS011;64906;51.290;7.348;2023-03-01T06:57:55;37.80;;;23.63;;
76155;SDS011;64906;51.290;7.348;2023-03-01T07:00:26;35.28;;;22.92;;
76155;SDS011;64906;51.290;7.348;2023-03-01T07:02:52;34.28;;;23.17;;
76155;SDS011;64906;51.290;7.348;2023-03-01T07:05:19;34.83;;;21.73;;
76155;SDS011;64906;51.290;7.348;2023-03-01T07:07:45;35.53;;;24.85;;
76155;SDS011;64906;51.290;7.348;2023-03-01T07:10:11;35.65;;;22.50;;
76155;SDS011;64906;51.290;7.348;2023-03-01T07:12:37;33.22;;;22.13;;
76155;SDS011;64906;51.290;7.348;2023-03-01T07:15:03;36.70;;;23.05;;
76155;SDS011;64906;51.290;7.348;2023-03-01T07:17:30;36.38;;;22.88;;
76155;SDS011;64906;51.290;7.348;2023-03-01T07:19:56;38.67;;;23.23;;
76155;SDS011;64906;51.290;7.348;2023-03-01T07:22:22;33.08;;;21.38;;
76155;SDS011;64906;51.290;7.348;2023-03-01T07:24:48;37.20;;;22.48;;
76155;SDS011;64906;51.290;7.348;2023-03-01T07:27:14;33.30;;;21.30;;
76155;SDS011;64906;51.290;7.348;2023-03-01T07:29:39;33.72;;;21.88;;
76155;SDS011;64906;51.290;7.348;2023-03-01T07:32:05;34.05;;;21.60;;
76155;SDS011;64906;51.290;7.348;2023-03-01T07:34:32;34.60;;;21.20;;
76155;SDS011;64906;51.290;7.348;2023-03-01T07:36:57;29.98;;;20.42;;
76155;SDS011;64906;51.290;7.348;2023-03-01T07:39:23;32.35;;;21.40;;
76155;SDS011;64906;51.290;7.348;2023-03-01T07:41:49;33.40;;;21.73;;
76155;SDS011;64906;51.290;7.348;2023-03-01T07:44:15;36.03;;;21.73;;
76155;SDS011;64906;51.290;7.348;2023-03-01T07:46:42;33.97;;;21.55;;
76155;SDS011;64906;51.290;7.348;2023-03-01T07:49:09;35.97;;;21.17;;
76155;SDS011;64906;51.290;7.348;2023-03-01T07:51:35;33.53;;;20.58;;
76155;SDS011;64906;51.290;7.348;2023-03-01T07:54:01;33.17;;;21.05;;
76155;SDS011;64906;51.290;7.348;2023-03-01T07:56:27;34.15;;;21.15;;
76155;SDS011;64906;51.290;7.348;2023-03-01T07:58:52;30.55;;;20.20;;
76155;SDS011;64906;51.290;7.348;2023-03-01T08:01:19;37.03;;;24.33;;
76155;SDS011;64906;51.290;7.348;2023-03-01T08:03:47;32.80;;;20.58;;
76155;SDS011;64906;51.290;7.348;2023-03-01T08:06:14;35.55;;;21.67;;
76155;SDS011;64906;51.290;7.348;2023-03-01T08:08:41;33.50;;;21.63;;
76155;SDS011;64906;51.290;7.348;2023-03-01T08:11:07;39.85;;;24.27;;
76155;SDS011;64906;51.290;7.348;2023-03-01T08:13:36;39.75;;;24.98;;
76155;SDS011;64906;51.290;7.348;2023-03-01T08:16:04;44.00;;;28.13;;
76155;SDS011;64906;51.290;7.348;2023-03-01T08:18:36;44.67;;;29.20;;
76155;SDS011;64906;51.290;7.348;2023-03-01T08:21:06;46.63;;;31.40;;
76155;SDS011;64906;51.290;7.348;2023-03-01T08:23:39;47.90;;;31.52;;
76155;SDS011;64906;51.290;7.348;2023-03-01T08:26:08;54.67;;;35.35;;
76155;SDS011;64906;51.290;7.348;2023-03-01T08:28:42;55.20;;;37.25;;
76155;SDS011;64906;51.290;7.348;2023-03-01T08:31:28;55.65;;;40.42;;
76155;SDS011;64906;51.290;7.348;2023-03-01T08:33:57;58.90;;;39.90;;
76155;SDS011;64906;51.290;7.348;2023-03-01T08:36:29;57.40;;;39.45;;
76155;SDS011;64906;51.290;7.348;2023-03-01T08:38:57;61.10;;;41.42;;
76155;SDS011;64906;51.290;7.348;2023-03-01T08:41:23;60.63;;;39.47;;
76155;SDS011;64906;51.290;7.348;2023-03-01T08:43:49;66.65;;;46.38;;
76155;SDS011;64906;51.290;7.348;2023-03-01T08:46:15;62.80;;;41.90;;
76155;SDS011;64906;51.290;7.348;2023-03-01T08:48:41;67.40;;;43.97;;
76155;SDS011;64906;51.290;7.348;2023-03-01T08:51:12;72.57;;;45.97;;
76155;SDS011;64906;51.290;7.348;2023-03-01T08:53:39;76.07;;;49.58;;
76155;SDS011;64906;51.290;7.348;2023-03-01T08:56:05;73.55;;;49.35;;
76155;SDS011;64906;51.290;7.348;2023-03-01T08:58:32;80.07;;;53.20;;
76155;SDS011;64906;51.290;7.348;2023-03-01T09:00:58;81.47;;;55.10;;
76155;SDS011;64906;51.290;7.348;2023-03-01T09:03:24;87.78;;;57.22;;
76155;SDS011;64906;51.290;7.348;2023-03-01T09:05:51;95.25;;;61.45;;
76155;SDS011;64906;51.290;7.348;2023-03-01T09:08:18;90.85;;;60.15;;
76155;SDS011;64906;51.290;7.348;2023-03-01T09:10:44;91.95;;;61.92;;
76155;SDS011;64906;51.290;7.348;2023-03-01T09:13:11;92.50;;;61.97;;
76155;SDS011;64906;51.290;7.348;2023-03-01T09:15:37;89.70;;;62.28;;
76155;SDS011;64906;51.290;7.348;2023-03-01T09:18:04;90.30;;;60.38;;
76155;SDS011;64906;51.290;7.348;2023-03-01T09:20:31;92.95;;;63.30;;
76155;SDS011;64906;51.290;7.348;2023-03-01T09:22:58;91.15;;;61.90;;
76155;SDS011;64906;51.290;7.348;2023-03-01T09:25:24;98.75;;;64.03;;
76155;SDS011;64906;51.290;7.348;2023-03-01T09:27:51;97.32;;;65.45;;
76155;SDS011;64906;51.290;7.348;2023-03-01T09:30:17;90.63;;;62.78;;
76155;SDS011;64906;51.290;7.348;2023-03-01T09:32:44;95.53;;;63.65;;
76155;SDS011;64906;51.290;7.348;2023-03-01T09:35:10;98.30;;;64.70;;
76155;SDS011;64906;51.290;7.348;2023-03-01T09:37:36;98.40;;;65.45;;
76155;SDS011;64906;51.290;7.348;2023-03-01T09:40:04;98.72;;;66.93;;
76155;SDS011;64906;51.290;7.348;2023-03-01T09:42:32;97.45;;;63.55;;
76155;SDS011;64906;51.290;7.348;2023-03-01T09:47:37;102.75;;;68.10;;
76155;SDS011;64906;51.290;7.348;2023-03-01T09:52:41;100.57;;;66.35;;
76155;SDS011;64906;51.290;7.348;2023-03-01T09:55:21;102.40;;;65.75;;
76155;SDS011;64906;51.290;7.348;2023-03-01T09:57:55;106.22;;;68.05;;
76155;SDS011;64906;51.290;7.348;2023-03-01T10:06:02;104.72;;;67.68;;
76155;SDS011;64906;51.290;7.348;2023-03-01T10:08:34;101.13;;;66.13;;
76155;SDS011;64906;51.290;7.348;2023-03-01T10:11:20;105.28;;;67.70;;
76155;SDS011;64906;51.290;7.348;2023-03-01T10:16:53;106.70;;;67.40;;
76155;SDS011;64906;51.290;7.348;2023-03-01T10:21:57;103.78;;;66.35;;
76155;SDS011;64906;51.290;7.348;2023-03-01T10:24:30;100.35;;;67.38;;
76155;SDS011;64906;51.290;7.348;2023-03-01T10:27:05;102.32;;;73.65;;
76155;SDS011;64906;51.290;7.348;2023-03-01T10:30:05;93.25;;;61.72;;
76155;SDS011;64906;51.290;7.348;2023-03-01T10:32:33;94.75;;;62.47;;
76155;SDS011;64906;51.290;7.348;2023-03-01T10:34:59;96.85;;;63.20;;
76155;SDS011;64906;51.290;7.348;2023-03-01T10:37:26;91.97;;;60.03;;
76155;SDS011;64906;51.290;7.348;2023-03-01T10:39:56;94.80;;;61.90;;
76155;SDS011;64906;51.290;7.348;2023-03-01T10:42:37;93.75;;;61.53;;
76155;SDS011;64906;51.290;7.348;2023-03-01T10:45:26;90.32;;;58.72;;
76155;SDS011;64906;51.290;7.348;2023-03-01T10:48:04;84.97;;;58.15;;
76155;SDS011;64906;51.290;7.348;2023-03-01T10:50:36;91.05;;;60.67;;
76155;SDS011;64906;51.290;7.348;2023-03-01T10:53:05;96.75;;;61.70;;
76155;SDS011;64906;51.290;7.348;2023-03-01T10:55:44;91.03;;;60.80;;
76155;SDS011;64906;51.290;7.348;2023-03-01T10:58:18;99.75;;;68.63;;
76155;SDS011;64906;51.290;7.348;2023-03-01T11:00:59;93.85;;;60.45;;
76155;SDS011;64906;51.290;7.348;2023-03-01T11:03:32;100.47;;;65.97;;
76155;SDS011;64906;51.290;7.348;2023-03-01T11:06:01;89.97;;;60.38;;
76155;SDS011;64906;51.290;7.348;2023-03-01T11:08:46;95.43;;;63.85;;
76155;SDS011;64906;51.290;7.348;2023-03-01T11:13:53;100.43;;;69.72;;
76155;SDS011;64906;51.290;7.348;2023-03-01T11:16:32;95.40;;;63.35;;
76155;SDS011;64906;51.290;7.348;2023-03-01T11:21:34;94.50;;;60.55;;
76155;SDS011;64906;51.290;7.348;2023-03-01T11:24:05;99.47;;;62.67;;
76155;SDS011;64906;51.290;7.348;2023-03-01T11:26:38;97.80;;;62.97;;
76155;SDS011;64906;51.290;7.348;2023-03-01T11:29:35;92.07;;;62.92;;
76155;SDS011;64906;51.290;7.348;2023-03-01T11:32:01;95.82;;;62.00;;
76155;SDS011;64906;51.290;7.348;2023-03-01T11:34:47;95.93;;;61.25;;
76155;SDS011;64906;51.290;7.348;2023-03-01T11:37:21;98.10;;;66.10;;
76155;SDS011;64906;51.290;7.348;2023-03-01T11:39:58;93.45;;;60.70;;
76155;SDS011;64906;51.290;7.348;2023-03-01T11:42:50;92.45;;;60.92;;
76155;SDS011;64906;51.290;7.348;2023-03-01T11:45:28;91.95;;;60.38;;
76155;SDS011;64906;51.290;7.348;2023-03-01T11:50:52;96.68;;;60.83;;
76155;SDS011;64906;51.290;7.348;2023-03-01T12:04:52;95.22;;;60.13;;
76155;SDS011;64906;51.290;7.348;2023-03-01T12:10:17;90.60;;;59.42;;
76155;SDS011;64906;51.290;7.348;2023-03-01T12:16:09;87.00;;;55.65;;
76155;SDS011;64906;51.290;7.348;2023-03-01T12:30:06;86.53;;;55.10;;
76155;SDS011;64906;51.290;7.348;2023-03-01T12:43:58;88.43;;;56.00;;
76155;SDS011;64906;51.290;7.348;2023-03-01T12:51:51;89.40;;;56.50;;
76155;SDS011;64906;51.290;7.348;2023-03-01T12:54:32;84.88;;;56.15;;
76155;SDS011;64906;51.290;7.348;2023-03-01T13:00:24;83.90;;;55.38;;
76155;SDS011;64906;51.290;7.348;2023-03-01T13:06:19;82.60;;;54.72;;
76155;SDS011;64906;51.290;7.348;2023-03-01T13:09:30;84.32;;;52.58;;
76155;SDS011;64906;51.290;7.348;2023-03-01T13:17:49;80.13;;;50.63;;
76155;SDS011;64906;51.290;7.348;2023-03-01T13:20:19;82.32;;;53.13;;
76155;SDS011;64906;51.290;7.348;2023-03-01T13:22:48;84.22;;;53.88;;
76155;SDS011;64906;51.290;7.348;2023-03-01T13:25:35;78.32;;;52.28;;
76155;SDS011;64906;51.290;7.348;2023-03-01T13:33:42;78.10;;;51.67;;
76155;SDS011;64906;51.290;7.348;2023-03-01T13:36:09;74.10;;;50.78;;
76155;SDS011;64906;51.290;7.348;2023-03-01T13:41:13;81.03;;;52.08;;
76155;SDS011;64906;51.290;7.348;2023-03-01T13:43:41;74.28;;;48.05;;
76155;SDS011;64906;51.290;7.348;2023-03-01T13:46:11;75.05;;;48.30;;
76155;SDS011;64906;51.290;7.348;2023-03-01T13:48:44;78.32;;;51.22;;
76155;SDS011;64906;51.290;7.348;2023-03-01T13:51:23;72.47;;;49.47;;
76155;SDS011;64906;51.290;7.348;2023-03-01T13:53:51;77.75;;;49.58;;
76155;SDS011;64906;51.290;7.348;2023-03-01T13:56:21;79.20;;;50.38;;
76155;SDS011;64906;51.290;7.348;2023-03-01T13:58:50;78.38;;;51.58;;
76155;SDS011;64906;51.290;7.348;2023-03-01T14:01:24;72.22;;;48.58;;
76155;SDS011;64906;51.290;7.348;2023-03-01T14:03:53;75.88;;;47.60;;
76155;SDS011;64906;51.290;7.348;2023-03-01T14:06:23;77.78;;;50.95;;
76155;SDS011;64906;51.290;7.348;2023-03-01T14:09:00;67.07;;;45.92;;
76155;SDS011;64906;51.290;7.348;2023-03-01T14:14:36;72.05;;;48.47;;
76155;SDS011;64906;51.290;7.348;2023-03-01T14:19:48;75.43;;;49.55;;
76155;SDS011;64906;51.290;7.348;2023-03-01T14:22:25;68.30;;;46.50;;
76155;SDS011;64906;51.290;7.348;2023-03-01T14:25:14;76.05;;;46.88;;
76155;SDS011;64906;51.290;7.348;2023-03-01T14:27:44;71.65;;;49.25;;
76155;SDS011;64906;51.290;7.348;2023-03-01T14:30:24;68.78;;;46.78;;
76155;SDS011;64906;51.290;7.348;2023-03-01T14:33:04;69.55;;;47.13;;
76155;SDS011;64906;51.290;7.348;2023-03-01T14:35:51;74.25;;;46.45;;
76155;SDS011;64906;51.290;7.348;2023-03-01T14:38:22;74.55;;;45.28;;
76155;SDS011;64906;51.290;7.348;2023-03-01T14:40:54;67.47;;;46.10;;
76155;SDS011;64906;51.290;7.348;2023-03-01T14:43:25;69.60;;;45.17;;
76155;SDS011;64906;51.290;7.348;2023-03-01T14:45:52;68.85;;;46.03;;
76155;SDS011;64906;51.290;7.348;2023-03-01T14:48:18;70.07;;;46.08;;
76155;SDS011;64906;51.290;7.348;2023-03-01T14:50:45;72.97;;;47.63;;
76155;SDS011;64906;51.290;7.348;2023-03-01T14:53:21;67.93;;;45.05;;
76155;SDS011;64906;51.290;7.348;2023-03-01T14:55:54;68.28;;;45.97;;
76155;SDS011;64906;51.290;7.348;2023-03-01T14:58:24;67.53;;;45.00;;
76155;SDS011;64906;51.290;7.348;2023-03-01T15:00:54;63.65;;;44.42;;
76155;SDS011;64906;51.290;7.348;2023-03-01T15:03:27;70.63;;;46.47;;
76155;SDS011;64906;51.290;7.348;2023-03-01T15:05:55;68.53;;;46.03;;
76155;SDS011;64906;51.290;7.348;2023-03-01T15:08:25;68.00;;;44.42;;
76155;SDS011;64906;51.290;7.348;2023-03-01T15:13:38;66.75;;;43.33;;
76155;SDS011;64906;51.290;7.348;2023-03-01T15:16:12;64.82;;;42.88;;
76155;SDS011;64906;51.290;7.348;2023-03-01T15:18:48;67.03;;;43.22;;
76155;SDS011;64906;51.290;7.348;2023-03-01T15:21:36;63.25;;;42.08;;
76155;SDS011;64906;51.290;7.348;2023-03-01T15:26:41;67.60;;;43.42;;
76155;SDS011;64906;51.290;7.348;2023-03-01T15:29:28;66.30;;;44.03;;
76155;SDS011;64906;51.290;7.348;2023-03-01T15:32:20;61.50;;;41.05;;
76155;SDS011;64906;51.290;7.348;2023-03-01T15:34:54;66.25;;;44.15;;
76155;SDS011;64906;51.290;7.348;2023-03-01T15:43:36;64.70;;;43.05;;
76155;SDS011;64906;51.290;7.348;2023-03-01T15:46:03;64.95;;;42.10;;
76155;SDS011;64906;51.290;7.348;2023-03-01T15:48:29;62.47;;;42.95;;
76155;SDS011;64906;51.290;7.348;2023-03-01T15:50:56;62.78;;;41.63;;
76155;SDS011;64906;51.290;7.348;2023-03-01T15:53:24;63.38;;;41.60;;
76155;SDS011;64906;51.290;7.348;2023-03-01T15:55:53;59.08;;;41.42;;
76155;SDS011;64906;51.290;7.348;2023-03-01T15:58:21;64.60;;;46.03;;
76155;SDS011;64906;51.290;7.348;2023-03-01T16:00:49;61.47;;;40.13;;
76155;SDS011;64906;51.290;7.348;2023-03-01T16:03:21;60.15;;;41.17;;
76155;SDS011;64906;51.290;7.348;2023-03-01T16:05:48;61.65;;;40.67;;
76155;SDS011;64906;51.290;7.348;2023-03-01T16:08:16;63.42;;;40.67;;
76155;SDS011;64906;51.290;7.348;2023-03-01T16:10:43;61.50;;;40.03;;
76155;SDS011;64906;51.290;7.348;2023-03-01T16:13:10;57.60;;;39.10;;
76155;SDS011;64906;51.290;7.348;2023-03-01T16:15:37;55.67;;;38.35;;
76155;SDS011;64906;51.290;7.348;2023-03-01T16:18:04;58.88;;;39.38;;
76155;SDS011;64906;51.290;7.348;2023-03-01T16:20:35;60.03;;;38.45;;
76155;SDS011;64906;51.290;7.348;2023-03-01T16:23:02;59.17;;;38.67;;
76155;SDS011;64906;51.290;7.348;2023-03-01T16:25:31;54.90;;;36.47;;
76155;SDS011;64906;51.290;7.348;2023-03-01T16:27:57;59.72;;;37.95;;
76155;SDS011;64906;51.290;7.348;2023-03-01T16:30:26;60.90;;;36.60;;
76155;SDS011;64906;51.290;7.348;2023-03-01T16:32:52;53.75;;;34.90;;
76155;SDS011;64906;51.290;7.348;2023-03-01T16:35:19;55.47;;;37.08;;
76155;SDS011;64906;51.290;7.348;2023-03-01T16:37:46;58.75;;;37.33;;